KFVE

Northern Aroostook Regional Airport

Frenchville, Maine, USA
METAR KFVE 230253Z AUTO 29009KT 10SM OVC110 18/07 A2984 RMK AO2 PRESRR SLP101 T01830072 53015
Observed Flight Rules
May-23 @ 02:53 UTC (19 minutes ago) Visual Flight Rules
Wind Visibility Clouds
290° at 9 knots 10 miles
  • Overcast at 11,000' AGL
Temperatures Readings
Current 18°C / 64°F
Dewpoint 7°C / 45°F
Humidity 49%
Altimeter 29.84" Hg
Pressure 1010.1 hPa
Elevation 301
METAR KFVE 230253Z AUTO 29009KT 10SM OVC110 18/07 A2984 RMK AO2 PRESRR SLP101 T01830072 53015
Observed Flight Rules
May-23 @ 02:53 UTC
(19 minutes ago)
VFR
Wind Visibility
290° at 9 knots 10 miles
Clouds
  • Overcast at 11,000' AGL
Temperature Dewpoint
18°C / 64°F 7°C / 45°F
Humidity Altimeter Pressure
49% 29.84" Hg 1010.1 hPa